createdAt,value
2019-02-06T00:02:26.410Z,30.60
2019-02-06T00:07:48.835Z,28.00
2019-02-06T00:10:19.144Z,29.43
2019-02-06T00:12:49.225Z,29.33
2019-02-06T00:15:20.231Z,29.50
2019-02-06T00:17:51.236Z,28.87
2019-02-06T00:20:21.220Z,28.47
2019-02-06T00:22:51.446Z,27.83
2019-02-06T00:25:21.424Z,29.23
2019-02-06T00:28:03.646Z,28.57
2019-02-06T00:30:33.730Z,28.53
2019-02-06T00:33:03.664Z,28.23
2019-02-06T00:35:33.712Z,28.03
2019-02-06T00:38:05.490Z,27.70
2019-02-06T00:40:35.144Z,31.40
2019-02-06T00:43:05.351Z,28.17
2019-02-06T00:45:35.454Z,29.73
2019-02-06T00:48:05.532Z,28.90
2019-02-06T00:50:35.517Z,28.90
2019-02-06T00:53:05.453Z,30.70
2019-02-06T00:55:35.396Z,29.73
2019-02-06T00:58:05.285Z,30.73
2019-02-06T01:00:35.384Z,28.43
2019-02-06T01:03:06.299Z,28.50
2019-02-06T01:05:38.402Z,28.27
2019-02-06T01:08:07.807Z,28.70
2019-02-06T01:10:37.991Z,27.77
2019-02-06T01:13:07.883Z,27.00
2019-02-06T01:15:39.213Z,28.70
2019-02-06T01:18:09.096Z,26.63
2019-02-06T01:20:39.176Z,27.27
2019-02-06T01:23:09.064Z,28.30
2019-02-06T01:25:39.021Z,28.40
2019-02-06T01:28:09.017Z,29.07
2019-02-06T01:30:40.989Z,27.83
2019-02-06T01:33:11.004Z,28.30
2019-02-06T01:35:49.539Z,27.50
2019-02-06T01:38:12.546Z,28.73
2019-02-06T01:40:42.579Z,27.93
2019-02-06T01:43:12.489Z,27.07
2019-02-06T01:45:43.077Z,27.53
2019-02-06T01:48:13.111Z,27.40
2019-02-06T01:50:43.128Z,27.97
2019-02-06T01:53:12.999Z,28.37
2019-02-06T01:55:42.982Z,28.23
2019-02-06T01:58:13.089Z,26.20
2019-02-06T02:00:42.986Z,26.23
2019-02-06T02:03:13.107Z,26.33
2019-02-06T02:05:43.006Z,27.23
2019-02-06T02:08:12.968Z,25.93
2019-02-06T02:10:43.064Z,27.50
2019-02-06T02:13:13.048Z,26.57
2019-02-06T02:15:44.143Z,27.30
2019-02-06T02:18:14.135Z,27.20
2019-02-06T02:20:44.215Z,25.83
2019-02-06T02:23:14.195Z,26.27
2019-02-06T02:25:44.245Z,25.27
2019-02-06T02:28:14.645Z,24.53
2019-02-06T02:30:49.288Z,25.43
2019-02-06T02:33:19.287Z,28.07
2019-02-06T02:35:49.295Z,25.87
2019-02-06T02:38:19.282Z,25.30
2019-02-06T02:40:49.183Z,24.23
2019-02-06T02:43:19.319Z,25.13
2019-02-06T02:45:49.419Z,24.13
2019-02-06T02:48:19.430Z,24.77
2019-02-06T02:50:49.355Z,24.30
2019-02-06T02:53:19.328Z,23.43
2019-02-06T02:55:49.639Z,23.37
2019-02-06T02:58:19.636Z,23.53
2019-02-06T03:00:57.076Z,24.07
2019-02-06T03:03:28.683Z,24.10
2019-02-06T03:05:59.665Z,21.83
2019-02-06T03:08:30.052Z,23.77
2019-02-06T03:10:59.952Z,23.00
2019-02-06T03:13:30.009Z,22.50
2019-02-06T03:16:01.808Z,22.87
2019-02-06T03:18:31.800Z,22.77
2019-02-06T03:21:01.717Z,22.53
2019-02-06T03:23:31.701Z,23.43
2019-02-06T03:26:02.638Z,24.57
2019-02-06T03:28:32.661Z,23.90
2019-02-06T03:31:02.661Z,24.77
2019-02-06T03:33:32.672Z,23.60
2019-02-06T03:36:05.161Z,23.00
2019-02-06T03:38:35.182Z,23.27
2019-02-06T03:41:05.211Z,23.43
2019-02-06T03:43:35.239Z,24.10
2019-02-06T03:46:17.426Z,22.60
2019-02-06T03:48:47.751Z,22.80
2019-02-06T03:51:17.641Z,23.20
2019-02-06T03:53:47.639Z,23.63
2019-02-06T03:56:18.571Z,25.17
2019-02-06T03:58:48.593Z,25.13
2019-02-06T04:01:18.445Z,22.97
2019-02-06T04:03:48.491Z,24.50
2019-02-06T04:06:19.444Z,24.33
2019-02-06T04:08:49.455Z,23.17
2019-02-06T04:11:19.352Z,24.60
2019-02-06T04:13:49.418Z,24.87
2019-02-06T04:16:20.416Z,24.03
2019-02-06T04:18:50.395Z,24.17
2019-02-06T04:21:20.291Z,23.63
2019-02-06T04:23:50.289Z,21.60
2019-02-06T04:26:21.306Z,24.90
2019-02-06T04:28:51.263Z,23.80
2019-02-06T04:31:21.576Z,23.10
2019-02-06T04:33:51.549Z,22.23
2019-02-06T04:36:22.599Z,23.90
2019-02-06T04:38:52.582Z,24.03
2019-02-06T04:41:22.512Z,22.27
2019-02-06T04:43:52.571Z,23.80
2019-02-06T04:46:23.576Z,23.00
2019-02-06T04:48:53.591Z,23.43
2019-02-06T04:51:23.574Z,24.03
2019-02-06T04:53:53.604Z,23.97
2019-02-06T04:56:24.763Z,23.00
2019-02-06T04:58:55.178Z,22.10
2019-02-06T05:01:25.159Z,22.77
2019-02-06T05:03:55.195Z,22.17
2019-02-06T05:06:26.338Z,24.30
2019-02-06T05:08:56.374Z,24.07
2019-02-06T05:11:27.365Z,23.93
2019-02-06T05:13:57.830Z,23.37
2019-02-06T05:16:29.824Z,23.00
2019-02-06T05:18:59.828Z,23.40
2019-02-06T05:21:29.740Z,22.07
2019-02-06T05:23:59.842Z,23.30
2019-02-06T05:26:30.906Z,22.07
2019-02-06T05:29:02.001Z,22.90
2019-02-06T05:31:31.919Z,21.50
2019-02-06T05:34:01.908Z,21.43
2019-02-06T05:36:32.946Z,20.87
2019-02-06T05:39:02.923Z,21.07
2019-02-06T05:41:33.944Z,20.27
2019-02-06T05:44:04.058Z,18.63
2019-02-06T05:46:36.066Z,19.50
2019-02-06T05:49:06.184Z,22.90
2019-02-06T05:51:36.184Z,21.50
2019-02-06T05:54:06.189Z,20.93
2019-02-06T05:56:48.432Z,18.43
2019-02-06T05:59:19.244Z,19.50
2019-02-06T06:01:49.438Z,18.80
2019-02-06T06:04:19.619Z,17.47
2019-02-06T06:06:50.771Z,17.87
2019-02-06T06:09:21.111Z,17.90
2019-02-06T06:11:50.988Z,17.53
2019-02-06T06:14:21.038Z,16.77
2019-02-06T06:16:53.090Z,16.87
2019-02-06T06:19:23.102Z,19.13
2019-02-06T06:21:53.211Z,18.13
2019-02-06T06:24:23.489Z,17.37
2019-02-06T06:26:54.647Z,17.50
2019-02-06T06:29:24.631Z,23.07
2019-02-06T06:31:54.645Z,22.77
2019-02-06T06:34:24.640Z,19.83
2019-02-06T06:36:56.990Z,16.43
2019-02-06T06:39:27.156Z,15.10
2019-02-06T06:41:57.067Z,15.40
2019-02-06T06:44:27.047Z,15.97
2019-02-06T06:46:58.076Z,14.33
2019-02-06T06:49:27.987Z,14.87
2019-02-06T06:51:58.269Z,15.10
2019-02-06T06:54:28.183Z,13.67
2019-02-06T06:56:59.283Z,15.33
2019-02-06T06:59:29.331Z,13.80
2019-02-06T07:01:59.198Z,14.83
2019-02-06T07:04:29.202Z,19.60
2019-02-06T07:07:00.364Z,17.90
2019-02-06T07:09:30.362Z,17.83
2019-02-06T07:12:00.527Z,17.60
2019-02-06T07:14:30.746Z,17.87
2019-02-06T07:17:02.915Z,22.73
2019-02-06T07:19:33.243Z,16.77
2019-02-06T07:22:03.159Z,15.90
2019-02-06T07:24:33.190Z,16.13
2019-02-06T07:27:05.205Z,17.63
2019-02-06T07:29:35.239Z,16.53
2019-02-06T07:32:05.738Z,15.13
2019-02-06T07:34:36.515Z,14.55
2019-02-06T07:37:08.071Z,14.90
2019-02-06T07:39:38.677Z,15.43
2019-02-06T07:42:09.136Z,16.73
2019-02-06T07:44:39.771Z,16.27
2019-02-06T07:47:11.690Z,15.78
2019-02-06T07:49:42.314Z,17.00
2019-02-06T07:52:12.767Z,16.23
2019-02-06T07:54:43.365Z,15.10
2019-02-06T07:57:18.529Z,16.37
2019-02-06T07:59:49.162Z,16.23
2019-02-06T08:02:19.605Z,15.72
2019-02-06T08:04:50.217Z,15.25
2019-02-06T08:07:23.844Z,15.88
2019-02-06T08:09:54.449Z,16.02
2019-02-06T08:12:24.948Z,14.90
2019-02-06T08:14:55.877Z,15.23
2019-02-06T08:17:30.321Z,13.75
2019-02-06T08:20:00.918Z,14.65
2019-02-06T08:22:31.518Z,16.30
2019-02-06T08:25:02.119Z,15.50
2019-02-06T08:27:34.086Z,15.30
2019-02-06T08:30:10.217Z,14.07
2019-02-06T08:32:40.802Z,12.98
2019-02-06T08:35:11.743Z,14.47
2019-02-06T08:37:46.242Z,14.25
2019-02-06T08:40:22.462Z,13.35
2019-02-06T08:42:52.960Z,13.78
2019-02-06T08:45:23.702Z,11.63
2019-02-06T08:48:00.099Z,11.95
2019-02-06T08:50:31.001Z,11.50
2019-02-06T08:53:01.471Z,11.53
2019-02-06T08:55:34.897Z,13.88
2019-02-06T08:58:05.374Z,16.82
2019-02-06T09:00:40.431Z,14.13
2019-02-06T09:03:11.348Z,19.92
2019-02-06T09:05:41.885Z,20.08
2019-02-06T09:08:12.464Z,21.15
2019-02-06T09:10:43.137Z,18.95
2019-02-06T09:13:13.633Z,19.52
2019-02-06T09:15:44.246Z,17.80
2019-02-06T09:18:15.625Z,22.48
2019-02-06T09:20:46.206Z,21.80
2019-02-06T09:23:16.706Z,26.52
2019-02-06T09:25:47.332Z,26.50
2019-02-06T09:28:17.787Z,27.65
2019-02-06T09:30:48.767Z,29.60
2019-02-06T09:33:19.270Z,29.02
2019-02-06T09:35:49.842Z,26.07
2019-02-06T09:38:20.317Z,27.62
2019-02-06T09:40:50.925Z,27.60
2019-02-06T09:43:21.416Z,28.12
2019-02-06T09:45:52.256Z,29.87
2019-02-06T09:48:22.758Z,26.62
2019-02-06T09:50:53.335Z,20.02
2019-02-06T09:53:23.808Z,30.80
2019-02-06T09:55:55.426Z,30.55
2019-02-06T09:58:26.415Z,34.00
2019-02-06T10:00:56.985Z,26.48
2019-02-06T10:06:18.921Z,30.95
2019-02-06T10:08:49.911Z,27.67
2019-02-06T10:11:20.502Z,30.80
2019-02-06T10:13:51.101Z,30.35
2019-02-06T10:16:27.682Z,30.97
2019-02-06T10:18:59.857Z,28.45
2019-02-06T10:21:30.583Z,28.98
2019-02-06T10:24:01.066Z,30.57
2019-02-06T10:26:34.384Z,29.65
2019-02-06T10:29:16.736Z,31.57
2019-02-06T10:31:47.353Z,30.40
2019-02-06T10:34:17.829Z,28.20
2019-02-06T10:36:52.733Z,30.17
2019-02-06T10:39:33.944Z,30.90
2019-02-06T10:41:55.439Z,30.90
2019-02-06T10:44:25.945Z,29.80
2019-02-06T10:46:57.657Z,30.30
2019-02-06T10:49:28.215Z,30.77
2019-02-06T10:51:58.767Z,28.47
2019-02-06T10:54:28.676Z,29.90
2019-02-06T10:57:00.353Z,30.00
2019-02-06T10:59:31.280Z,30.20
2019-02-06T11:02:01.308Z,29.27
2019-02-06T11:04:31.223Z,29.33
2019-02-06T11:07:02.310Z,28.87
2019-02-06T11:09:32.316Z,29.53
2019-02-06T11:12:03.040Z,28.40
2019-02-06T11:14:33.071Z,30.33
2019-02-06T11:17:05.396Z,31.47
2019-02-06T11:19:36.512Z,31.37
2019-02-06T11:22:06.651Z,32.27
2019-02-06T11:24:38.392Z,31.93
2019-02-06T11:27:09.924Z,33.60
2019-02-06T11:29:39.938Z,34.80
2019-02-06T11:32:10.075Z,34.53
2019-02-06T11:34:40.077Z,35.83
2019-02-06T11:37:10.123Z,34.93
2019-02-06T11:39:40.353Z,37.80
2019-02-06T11:42:10.360Z,37.67
2019-02-06T11:44:40.292Z,37.67
2019-02-06T11:47:15.111Z,38.13
2019-02-06T11:49:45.608Z,37.93
2019-02-06T11:52:15.616Z,37.40
2019-02-06T11:54:45.635Z,38.23
2019-02-06T11:57:16.749Z,39.03
2019-02-06T11:59:46.647Z,40.53
2019-02-06T12:02:17.864Z,39.43
2019-02-06T12:04:47.756Z,41.83
2019-02-06T12:07:19.276Z,41.47
2019-02-06T12:09:49.287Z,42.90
2019-02-06T12:12:19.297Z,40.57
2019-02-06T12:14:49.305Z,42.70
2019-02-06T12:17:20.543Z,40.83
2019-02-06T12:19:52.591Z,41.27
2019-02-06T12:22:23.587Z,40.40
2019-02-06T12:24:53.501Z,41.17
2019-02-06T12:27:24.596Z,38.93
2019-02-06T12:29:54.519Z,41.13
2019-02-06T12:32:24.641Z,37.80
2019-02-06T12:34:54.563Z,40.10
2019-02-06T12:37:24.694Z,41.07
2019-02-06T12:39:54.596Z,40.37
2019-02-06T12:42:24.607Z,40.10
2019-02-06T12:44:54.509Z,38.90
2019-02-06T12:47:26.881Z,39.50
2019-02-06T12:49:57.397Z,38.40
2019-02-06T12:52:27.629Z,38.73
2019-02-06T12:54:57.551Z,36.10
2019-02-06T12:57:36.417Z,37.80
2019-02-06T12:59:59.041Z,37.50
2019-02-06T13:02:29.107Z,40.03
2019-02-06T13:04:59.021Z,39.27
2019-02-06T13:07:29.428Z,38.77
2019-02-06T13:09:59.340Z,39.47
2019-02-06T13:12:29.312Z,38.40
2019-02-06T13:14:59.220Z,40.77
2019-02-06T13:17:30.361Z,40.63
2019-02-06T13:20:01.386Z,40.23
2019-02-06T13:22:31.779Z,39.27
2019-02-06T13:25:01.702Z,40.20
2019-02-06T13:27:31.816Z,38.47
2019-02-06T13:30:01.728Z,39.03
2019-02-06T13:32:33.462Z,40.30
2019-02-06T13:35:03.351Z,40.73
2019-02-06T13:37:33.381Z,38.97
2019-02-06T13:40:03.266Z,39.67
2019-02-06T13:42:33.298Z,38.57
2019-02-06T13:45:03.314Z,37.17
2019-02-06T13:47:34.468Z,33.30
2019-02-06T13:50:07.634Z,35.60
2019-02-06T13:52:38.861Z,39.87
2019-02-06T13:55:14.549Z,40.93
2019-02-06T13:57:46.861Z,37.77
2019-02-06T14:00:34.217Z,39.00
2019-02-06T14:03:06.567Z,36.73
2019-02-06T14:05:36.556Z,36.87
2019-02-06T14:08:09.354Z,32.83
2019-02-06T14:10:39.359Z,34.63
2019-02-06T14:13:09.391Z,47.87
2019-02-06T14:15:44.544Z,39.23
2019-02-06T14:18:14.600Z,37.13
2019-02-06T14:20:46.822Z,33.40
2019-02-06T14:23:32.784Z,33.93
2019-02-06T14:26:16.123Z,34.90
2019-02-06T14:29:04.186Z,30.70
2019-02-06T14:31:56.747Z,28.03
2019-02-06T14:34:47.948Z,30.90
2019-02-06T14:37:32.279Z,31.15
2019-02-06T14:40:11.214Z,28.33
2019-02-06T14:43:03.906Z,30.60
2019-02-06T14:45:46.041Z,31.40
2019-02-06T14:48:39.825Z,28.33
2019-02-06T14:51:39.071Z,31.37
2019-02-06T14:54:12.112Z,28.33
2019-02-06T14:56:49.274Z,30.80
2019-02-06T14:59:34.847Z,28.50
2019-02-06T15:02:39.878Z,28.70
2019-02-06T15:05:22.119Z,27.97
2019-02-06T15:08:16.296Z,26.90
2019-02-06T15:11:07.305Z,24.37
2019-02-06T15:14:00.263Z,27.50
2019-02-06T15:16:42.946Z,28.43
2019-02-06T15:19:33.868Z,30.07
2019-02-06T15:22:28.218Z,25.70
2019-02-06T15:25:18.750Z,26.77
2019-02-06T15:28:07.734Z,28.93
2019-02-06T15:30:40.840Z,29.70
2019-02-06T15:33:34.382Z,30.03
2019-02-06T15:36:08.581Z,28.83
2019-02-06T15:38:47.196Z,30.40
2019-02-06T15:42:08.852Z,30.47
2019-02-06T15:44:50.819Z,31.70
2019-02-06T15:47:32.792Z,34.63
2019-02-06T15:50:26.642Z,34.67
2019-02-06T15:53:03.460Z,36.77
2019-02-06T15:55:43.292Z,35.17
2019-02-06T15:58:39.072Z,33.60
2019-02-06T16:04:43.975Z,34.17
2019-02-06T16:07:33.185Z,37.27
2019-02-06T16:10:34.999Z,34.10
2019-02-06T16:13:25.967Z,33.87
2019-02-06T16:16:21.427Z,32.87
2019-02-06T16:19:06.780Z,41.77
2019-02-06T16:22:07.147Z,37.87
2019-02-06T16:24:57.088Z,34.13
2019-02-06T16:27:44.351Z,33.70
2019-02-06T16:30:29.208Z,34.40
2019-02-06T16:33:20.950Z,36.23
2019-02-06T16:36:19.181Z,34.50
2019-02-06T16:39:13.111Z,34.03
2019-02-06T16:41:53.407Z,33.27
2019-02-06T16:44:41.962Z,34.53
2019-02-06T16:47:19.029Z,33.20
2019-02-06T16:50:04.827Z,34.87
2019-02-06T16:53:08.798Z,34.37
2019-02-06T16:56:00.301Z,36.57
2019-02-06T16:58:45.114Z,37.00
2019-02-06T17:01:34.787Z,35.53
2019-02-06T17:04:29.118Z,36.73
2019-02-06T17:07:19.809Z,42.13
2019-02-06T17:09:53.053Z,37.17
2019-02-06T17:12:35.181Z,37.57
2019-02-06T17:15:22.390Z,37.90
2019-02-06T17:18:00.326Z,36.73
2019-02-06T17:20:34.773Z,38.93
2019-02-06T17:23:36.660Z,38.87
2019-02-06T17:26:41.891Z,36.57
2019-02-06T17:29:19.677Z,37.47
2019-02-06T17:32:13.335Z,37.37
2019-02-06T17:34:47.256Z,55.50
2019-02-06T17:37:37.048Z,64.73
2019-02-06T17:40:31.378Z,44.30
2019-02-06T17:43:13.319Z,43.80
2019-02-06T17:45:53.362Z,42.70
2019-02-06T17:48:49.665Z,40.63
2019-02-06T17:51:40.718Z,39.43
2019-02-06T17:54:22.791Z,40.47
2019-02-06T17:57:05.010Z,39.27
2019-02-06T17:59:34.985Z,39.07
2019-02-06T18:02:05.003Z,40.50
2019-02-06T18:04:35.021Z,40.37
2019-02-06T18:07:07.755Z,42.13
2019-02-06T18:09:37.757Z,42.70
2019-02-06T18:12:07.764Z,40.03
2019-02-06T18:14:37.756Z,40.40
2019-02-06T18:17:08.894Z,41.47
2019-02-06T18:19:38.961Z,41.67
2019-02-06T18:22:08.989Z,39.80
2019-02-06T18:24:38.920Z,44.80
2019-02-06T18:27:11.098Z,40.53
2019-02-06T18:29:40.999Z,41.07
2019-02-06T18:32:10.987Z,42.20
2019-02-06T18:34:41.283Z,41.00
2019-02-06T18:37:11.302Z,45.97
2019-02-06T18:39:41.208Z,43.57
2019-02-06T18:42:11.219Z,44.47
2019-02-06T18:44:41.141Z,67.83
2019-02-06T18:47:12.250Z,54.40
2019-02-06T18:49:42.148Z,48.83
2019-02-06T18:52:20.189Z,47.17
2019-02-06T18:54:43.795Z,70.40
2019-02-06T18:57:14.013Z,68.83
2019-02-06T18:59:45.146Z,61.00
2019-02-06T19:02:15.354Z,53.87
2019-02-06T19:04:45.356Z,48.03
2019-02-06T19:07:16.910Z,43.70
2019-02-06T19:09:47.236Z,44.87
2019-02-06T19:12:17.696Z,42.90
2019-02-06T19:14:48.012Z,46.90
2019-02-06T19:17:19.621Z,43.10
2019-02-06T19:19:49.944Z,42.17
2019-02-06T19:22:20.397Z,44.30
2019-02-06T19:24:51.894Z,45.30
2019-02-06T19:27:24.626Z,42.70
2019-02-06T19:29:54.948Z,44.53
2019-02-06T19:32:25.439Z,42.93
2019-02-06T19:34:55.788Z,43.97
2019-02-06T19:37:26.412Z,42.73
2019-02-06T19:39:56.980Z,44.37
2019-02-06T19:42:27.445Z,43.10
2019-02-06T19:44:59.241Z,43.53
2019-02-06T19:47:32.281Z,43.93
2019-02-06T19:50:05.523Z,42.97
2019-02-06T19:52:36.418Z,44.40
2019-02-06T19:55:09.778Z,42.80
2019-02-06T19:57:40.729Z,40.57
2019-02-06T20:00:31.409Z,39.47
2019-02-06T20:03:03.481Z,41.07
2019-02-06T20:05:34.066Z,40.60
2019-02-06T20:08:04.843Z,37.80
2019-02-06T20:10:47.510Z,38.67
2019-02-06T20:13:18.242Z,39.60
2019-02-06T20:15:49.002Z,37.50
2019-02-06T20:18:22.717Z,39.30
2019-02-06T20:20:53.325Z,55.57
2019-02-06T20:23:44.726Z,43.27
2019-02-06T20:26:37.993Z,39.67
2019-02-06T20:29:09.493Z,40.13
2019-02-06T20:31:41.879Z,57.90
2019-02-06T20:34:14.017Z,52.27
2019-02-06T20:36:45.553Z,49.03
2019-02-06T20:39:16.395Z,40.33
2019-02-06T20:41:47.330Z,38.57
2019-02-06T20:44:18.022Z,40.73
2019-02-06T20:46:49.690Z,36.83
2019-02-06T20:49:20.443Z,35.30
2019-02-06T20:51:51.384Z,38.27
2019-02-06T20:54:21.936Z,35.70
2019-02-06T20:56:52.294Z,34.97
2019-02-06T20:59:22.777Z,37.53
2019-02-06T21:01:52.952Z,36.43
2019-02-06T21:04:23.112Z,36.07
2019-02-06T21:06:54.677Z,35.80
2019-02-06T21:09:24.902Z,35.83
2019-02-06T21:11:54.844Z,37.27
2019-02-06T21:14:24.951Z,35.50
2019-02-06T21:16:55.963Z,37.13
2019-02-06T21:19:28.177Z,35.97
2019-02-06T21:21:57.590Z,38.83
2019-02-06T21:24:30.289Z,35.73
2019-02-06T21:27:02.154Z,37.77
2019-02-06T21:29:32.310Z,37.47
2019-02-06T21:32:02.205Z,36.83
2019-02-06T21:34:33.420Z,33.07
2019-02-06T21:37:03.511Z,33.33
2019-02-06T21:39:35.084Z,31.77
2019-02-06T21:42:05.167Z,30.37
2019-02-06T21:44:35.390Z,28.53
2019-02-06T21:47:06.717Z,29.23
2019-02-06T21:49:36.735Z,29.47
2019-02-06T21:52:06.630Z,30.03
2019-02-06T21:54:36.638Z,33.27
2019-02-06T21:57:06.633Z,30.10
2019-02-06T21:59:36.675Z,29.07
2019-02-06T22:02:06.986Z,28.40
2019-02-06T22:04:37.009Z,27.67
2019-02-06T22:07:08.004Z,27.13
2019-02-06T22:09:38.023Z,26.83
2019-02-06T22:12:07.917Z,24.83
2019-02-06T22:14:37.901Z,24.73
2019-02-06T22:17:08.967Z,25.13
2019-02-06T22:19:39.277Z,23.97
2019-02-06T22:22:09.637Z,21.83
2019-02-06T22:24:39.617Z,21.10
2019-02-06T22:27:10.535Z,20.77
2019-02-06T22:29:40.876Z,19.17
2019-02-06T22:32:10.792Z,21.53
2019-02-06T22:34:54.430Z,19.03
2019-02-06T22:37:24.419Z,18.37
2019-02-06T22:39:54.405Z,19.53
2019-02-06T22:42:24.304Z,19.33
2019-02-06T22:44:54.314Z,20.47
2019-02-06T22:47:25.315Z,19.63
2019-02-06T22:49:57.479Z,19.90
2019-02-06T22:52:26.710Z,20.20
2019-02-06T22:54:57.113Z,19.20
2019-02-06T22:57:28.055Z,20.30
2019-02-06T22:59:58.112Z,19.20
2019-02-06T23:02:27.995Z,18.93
2019-02-06T23:04:57.954Z,19.03
2019-02-06T23:07:28.984Z,18.83
2019-02-06T23:09:58.910Z,21.17
2019-02-06T23:12:29.872Z,20.60
2019-02-06T23:14:59.772Z,20.27
2019-02-06T23:17:31.844Z,19.90
2019-02-06T23:20:01.742Z,20.83
2019-02-06T23:22:33.565Z,21.20
2019-02-06T23:25:03.490Z,20.90
2019-02-06T23:27:36.529Z,22.00
2019-02-06T23:30:09.615Z,22.20
2019-02-06T23:32:39.606Z,22.10
2019-02-06T23:35:09.524Z,22.27
2019-02-06T23:37:39.513Z,21.33
2019-02-06T23:40:12.481Z,21.43
2019-02-06T23:42:42.473Z,23.97
2019-02-06T23:45:12.394Z,21.77
2019-02-06T23:47:43.848Z,22.57
2019-02-06T23:50:17.794Z,23.93
2019-02-06T23:52:47.800Z,22.87
2019-02-06T23:55:17.705Z,22.23
2019-02-06T23:57:48.731Z,22.47
